Time;durP1;ratioP1;P1;durP2;ratioP2;P2;SDS_P1;SDS_P2;PMS_P1;PMS_P2;Temp;Humidity;BMP_temperature;BMP_pressure;BME280_temperature;BME280_humidity;BME280_pressure;Samples;Min_cycle;Max_cycle;Signal;HPM_P1;HPM_P2
2022/05/15 00:02:39;;;;;;;11.70;3.60;;;17.40;72.20;;;;;;4980944;28;20129;-71
2022/05/15 00:05:07;;;;;;;14.80;4.00;;;17.40;72.10;;;;;;4991414;28;20034;-71
2022/05/15 00:07:32;;;;;;;14.30;3.95;;;17.40;71.80;;;;;;4990821;28;20125;-71
2022/05/15 00:09:58;;;;;;;15.27;4.30;;;17.30;71.50;;;;;;4991402;28;20459;-70
2022/05/15 00:12:24;;;;;;;15.57;3.75;;;17.30;71.30;;;;;;4991594;28;20034;-71
2022/05/15 00:14:49;;;;;;;16.13;4.30;;;17.20;71.00;;;;;;4990676;28;20121;-70
2022/05/15 00:17:16;;;;;;;12.27;5.00;;;17.20;70.90;;;;;;4991928;28;20117;-70
2022/05/15 00:19:42;;;;;;;20.00;4.70;;;17.20;71.00;;;;;;4991585;28;20034;-71
2022/05/15 00:22:09;;;;;;;17.00;4.20;;;17.10;71.30;;;;;;4991054;28;20034;-71
2022/05/15 00:24:36;;;;;;;14.85;4.15;;;17.10;71.20;;;;;;4991387;28;20150;-70
2022/05/15 00:27:02;;;;;;;18.75;4.57;;;17.00;71.30;;;;;;4991495;28;20035;-71
2022/05/15 00:29:28;;;;;;;15.48;4.30;;;17.00;72.40;;;;;;4982308;28;20088;-71
2022/05/15 00:31:54;;;;;;;17.83;4.47;;;17.00;72.20;;;;;;4990049;28;20033;-70
2022/05/15 00:34:19;;;;;;;16.05;4.47;;;16.90;72.20;;;;;;4991150;28;20104;-71
2022/05/15 00:36:45;;;;;;;15.20;3.90;;;16.90;72.30;;;;;;4990833;28;20041;-71
2022/05/15 00:39:11;;;;;;;18.52;4.13;;;16.90;72.10;;;;;;4991365;28;20030;-70
2022/05/15 00:41:38;;;;;;;16.15;4.13;;;16.80;72.10;;;;;;4989426;28;20489;-71
2022/05/15 00:44:05;;;;;;;15.82;5.38;;;16.80;72.10;;;;;;4990960;28;20039;-71
2022/05/15 00:46:40;;;;;;;16.85;5.03;;;16.70;72.60;;;;;;4991191;28;20042;-71
2022/05/15 00:49:10;;;;;;;14.18;4.30;;;16.70;73.20;;;;;;4990534;28;20033;-71
2022/05/15 00:51:38;;;;;;;12.30;4.43;;;16.70;73.70;;;;;;4991329;28;20033;-70
2022/05/15 00:54:09;;;;;;;10.98;3.60;;;16.60;73.90;;;;;;4991123;28;20370;-70
2022/05/15 00:56:40;;;;;;;17.23;5.20;;;16.60;74.20;;;;;;4990544;28;20042;-69
2022/05/15 00:59:13;;;;;;;18.35;6.75;;;16.60;74.60;;;;;;4991431;28;20041;-70
2022/05/15 01:01:41;;;;;;;23.20;7.53;;;16.50;75.10;;;;;;4991806;28;20034;-69
2022/05/15 01:04:07;;;;;;;19.17;6.05;;;16.50;75.40;;;;;;4992802;28;20057;-70
2022/05/15 01:06:36;;;;;;;21.00;6.85;;;16.50;75.70;;;;;;4980149;28;20082;-70
2022/05/15 01:09:04;;;;;;;22.20;4.93;;;16.40;76.00;;;;;;4993161;28;20125;-70
2022/05/15 01:11:30;;;;;;;13.85;4.50;;;16.40;76.20;;;;;;4993282;28;20111;-70
2022/05/15 01:13:57;;;;;;;22.80;4.93;;;16.30;76.20;;;;;;4994257;28;20386;-70
2022/05/15 01:16:25;;;;;;;20.60;4.85;;;16.30;76.40;;;;;;4992673;28;20030;-70
2022/05/15 01:18:58;;;;;;;65.43;3.92;;;16.30;76.30;;;;;;4992421;28;20145;-70
2022/05/15 01:21:33;;;;;;;15.60;3.30;;;16.20;76.40;;;;;;4984113;28;20065;-70
2022/05/15 01:24:01;;;;;;;33.47;4.18;;;16.20;76.70;;;;;;4991870;28;20054;-70
2022/05/15 01:26:30;;;;;;;66.30;5.57;;;16.20;77.00;;;;;;4977940;28;20037;-71
2022/05/15 01:28:57;;;;;;;87.10;6.00;;;16.10;77.20;;;;;;4992696;28;20061;-70
2022/05/15 01:31:24;;;;;;;14.10;4.53;;;16.10;77.50;;;;;;4992032;28;20027;-70
2022/05/15 01:33:51;;;;;;;16.70;4.47;;;16.10;77.80;;;;;;4992477;28;20038;-70
2022/05/15 01:36:22;;;;;;;19.40;4.13;;;16.10;78.00;;;;;;4993027;28;20450;-70
2022/05/15 01:38:48;;;;;;;10.52;3.40;;;16.00;78.10;;;;;;4993083;28;20049;-70
2022/05/15 01:41:14;;;;;;;10.70;3.30;;;16.00;78.30;;;;;;4994055;28;20100;-70
2022/05/15 01:43:43;;;;;;;7.70;3.15;;;15.90;78.40;;;;;;4993832;28;20073;-70
2022/05/15 01:46:10;;;;;;;9.13;3.30;;;15.90;78.50;;;;;;4991859;28;20034;-70
2022/05/15 01:48:37;;;;;;;7.50;2.58;;;15.90;78.60;;;;;;4993427;28;20037;-70
2022/05/15 01:51:06;;;;;;;6.68;2.60;;;15.80;78.60;;;;;;4992473;28;20030;-70
2022/05/15 01:53:33;;;;;;;7.00;2.70;;;15.80;78.40;;;;;;4979261;28;20031;-71
2022/05/15 01:55:58;;;;;;;5.72;2.60;;;15.80;78.10;;;;;;4992013;28;20046;-71
2022/05/15 01:58:24;;;;;;;5.70;2.20;;;15.80;77.90;;;;;;4992141;28;20026;-70
2022/05/15 02:00:50;;;;;;;8.13;2.95;;;15.70;77.60;;;;;;4991622;28;20027;-71
2022/05/15 02:03:16;;;;;;;5.55;2.60;;;15.80;77.40;;;;;;4987395;28;20032;-71
2022/05/15 02:05:42;;;;;;;12.93;4.10;;;15.70;77.20;;;;;;4984837;28;20137;-71
2022/05/15 02:08:11;;;;;;;9.88;3.75;;;15.70;77.40;;;;;;4992483;28;20034;-71
2022/05/15 02:10:37;;;;;;;8.88;3.10;;;15.60;77.40;;;;;;4992079;28;20026;-71
2022/05/15 02:13:02;;;;;;;10.15;3.55;;;15.60;77.10;;;;;;4990886;28;20031;-70
2022/05/15 02:15:28;;;;;;;6.47;2.92;;;15.60;77.20;;;;;;4991447;28;20026;-71
2022/05/15 02:17:54;;;;;;;11.18;2.65;;;15.60;77.20;;;;;;4993529;28;20109;-71
2022/05/15 02:20:20;;;;;;;7.47;2.50;;;15.50;77.30;;;;;;4991198;28;20034;-71
2022/05/15 02:22:45;;;;;;;6.13;2.17;;;15.50;77.30;;;;;;4992999;28;20030;-71
2022/05/15 02:25:13;;;;;;;7.22;2.83;;;15.50;77.30;;;;;;4981778;28;20065;-71
2022/05/15 02:27:42;;;;;;;8.00;2.30;;;15.50;77.30;;;;;;4990290;28;20026;-71
2022/05/15 02:30:09;;;;;;;10.68;2.88;;;15.50;77.30;;;;;;4993027;28;20038;-70
2022/05/15 02:32:35;;;;;;;8.43;2.97;;;15.40;77.20;;;;;;4991497;28;20367;-70
2022/05/15 02:35:09;;;;;;;9.77;3.20;;;15.40;77.20;;;;;;4990908;28;20030;-71
2022/05/15 02:37:35;;;;;;;10.20;3.63;;;15.30;77.30;;;;;;4991460;28;20026;-71
2022/05/15 02:40:01;;;;;;;12.48;3.58;;;15.30;77.00;;;;;;4992930;28;20081;-71
2022/05/15 02:42:27;;;;;;;9.45;2.80;;;15.30;76.70;;;;;;4990817;28;20113;-71
2022/05/15 02:44:53;;;;;;;11.88;3.53;;;15.20;76.30;;;;;;4992497;28;20129;-71
2022/05/15 02:47:19;;;;;;;10.77;3.45;;;15.20;76.00;;;;;;4992888;28;20023;-71
2022/05/15 02:52:29;;;;;;;18.08;3.75;;;15.20;75.70;;;;;;4992356;28;20034;-71
2022/05/15 02:54:55;;;;;;;13.80;3.65;;;15.10;75.90;;;;;;4991339;28;20038;-70
2022/05/15 02:57:21;;;;;;;9.50;3.70;;;15.10;76.00;;;;;;4990360;28;20482;-70
2022/05/15 02:59:47;;;;;;;13.65;3.85;;;15.10;76.00;;;;;;4991141;28;20057;-71
2022/05/15 03:02:12;;;;;;;10.27;3.13;;;15.10;76.00;;;;;;4992312;28;20426;-71
2022/05/15 03:04:38;;;;;;;13.23;3.60;;;15.00;75.90;;;;;;4991729;28;20121;-71
2022/05/15 03:07:05;;;;;;;11.38;3.65;;;15.00;75.60;;;;;;4992103;28;20505;-71
2022/05/15 03:09:31;;;;;;;12.45;3.83;;;15.00;75.60;;;;;;4990234;28;20037;-71
2022/05/15 03:11:57;;;;;;;11.95;3.67;;;15.00;75.50;;;;;;4990511;28;20510;-71
2022/05/15 03:14:23;;;;;;;17.23;4.05;;;14.90;75.30;;;;;;4990945;28;20027;-71
2022/05/15 03:16:55;;;;;;;8.73;3.33;;;14.90;75.50;;;;;;4990121;28;20117;-71
2022/05/15 03:19:20;;;;;;;11.52;3.65;;;14.90;75.80;;;;;;4992193;28;20032;-71
2022/05/15 03:21:47;;;;;;;13.63;3.72;;;14.80;75.70;;;;;;4992621;28;20069;-71
2022/05/15 03:24:13;;;;;;;13.10;3.58;;;14.80;75.80;;;;;;4989933;28;20069;-70
2022/05/15 03:26:45;;;;;;;9.00;3.92;;;14.80;75.80;;;;;;4989729;28;20038;-71
2022/05/15 03:29:17;;;;;;;11.43;3.55;;;14.70;76.00;;;;;;4990905;28;20061;-71
2022/05/15 03:31:43;;;;;;;10.45;2.35;;;14.70;76.30;;;;;;4989887;28;20037;-71
2022/05/15 03:34:12;;;;;;;14.88;4.07;;;14.70;76.50;;;;;;4992026;28;20027;-70
2022/05/15 03:36:39;;;;;;;17.02;5.00;;;14.70;76.70;;;;;;4990431;28;20034;-71
2022/05/15 03:39:07;;;;;;;7.03;3.45;;;14.70;77.00;;;;;;4991247;28;20041;-70
2022/05/15 03:41:34;;;;;;;7.35;2.92;;;14.60;77.20;;;;;;4991550;28;20053;-70
2022/05/15 03:44:00;;;;;;;12.50;3.42;;;14.60;77.50;;;;;;4990427;28;20031;-71
2022/05/15 03:46:26;;;;;;;7.80;3.40;;;14.60;77.90;;;;;;4991081;28;20679;-71
2022/05/15 03:48:52;;;;;;;12.15;4.68;;;14.50;78.20;;;;;;4990327;28;20117;-71
2022/05/15 03:51:18;;;;;;;39.72;4.95;;;14.50;78.50;;;;;;4991847;28;20034;-71
2022/05/15 03:53:44;;;;;;;15.40;3.83;;;14.50;78.70;;;;;;4989601;28;20035;-71
2022/05/15 03:56:11;;;;;;;13.07;4.47;;;14.50;78.90;;;;;;4990322;28;20038;-71
2022/05/15 03:58:38;;;;;;;29.42;3.85;;;14.40;79.00;;;;;;4989543;28;20022;-71
2022/05/15 04:01:05;;;;;;;65.55;3.13;;;14.40;79.30;;;;;;4991716;28;20034;-71
2022/05/15 04:03:32;;;;;;;143.07;4.60;;;14.40;79.60;;;;;;4991354;28;20019;-70
2022/05/15 04:05:58;;;;;;;26.30;2.90;;;14.30;79.70;;;;;;4989478;28;20058;-70
2022/05/15 04:08:24;;;;;;;42.45;2.90;;;14.30;80.00;;;;;;4991537;28;20082;-71
2022/05/15 04:10:55;;;;;;;51.88;3.00;;;14.20;80.20;;;;;;4989797;28;20054;-71
2022/05/15 04:13:23;;;;;;;56.17;2.85;;;14.20;80.40;;;;;;4989329;28;20039;-70
2022/05/15 04:15:52;;;;;;;18.85;2.50;;;14.20;80.60;;;;;;4990025;28;20037;-70
2022/05/15 04:18:18;;;;;;;13.45;3.38;;;14.20;80.80;;;;;;4990310;28;20026;-70
2022/05/15 04:20:43;;;;;;;11.95;2.78;;;14.20;81.10;;;;;;4989162;28;20038;-70
2022/05/15 04:23:09;;;;;;;7.93;2.85;;;14.10;81.30;;;;;;4991296;28;20488;-71
2022/05/15 04:25:35;;;;;;;6.22;2.95;;;14.10;81.70;;;;;;4991127;28;20034;-71
2022/05/15 04:28:01;;;;;;;7.22;2.35;;;14.10;82.00;;;;;;4990769;28;20109;-71
2022/05/15 04:30:27;;;;;;;13.23;3.00;;;14.10;82.10;;;;;;4991404;28;20034;-70
2022/05/15 04:32:54;;;;;;;10.27;3.10;;;14.10;82.30;;;;;;4989849;28;20035;-71
2022/05/15 04:35:22;;;;;;;13.20;3.88;;;14.10;82.60;;;;;;4990666;28;20025;-71
2022/05/15 04:37:50;;;;;;;14.85;4.65;;;14.00;82.80;;;;;;4993529;28;20529;-71
2022/05/15 04:40:20;;;;;;;13.65;4.07;;;14.00;83.00;;;;;;4995305;28;20034;-70
2022/05/15 04:42:46;;;;;;;18.83;4.65;;;14.00;83.30;;;;;;4993841;28;20489;-71
2022/05/15 04:45:11;;;;;;;18.70;4.28;;;14.00;83.50;;;;;;4994739;28;20097;-70
2022/05/15 04:47:37;;;;;;;20.52;4.88;;;14.00;83.70;;;;;;4995440;28;20038;-70
2022/05/15 04:50:03;;;;;;;20.92;4.88;;;14.00;84.00;;;;;;4994618;28;20076;-70
2022/05/15 04:52:29;;;;;;;15.90;4.82;;;13.90;84.20;;;;;;4994762;28;20045;-70
2022/05/15 04:54:55;;;;;;;16.83;5.15;;;14.00;85.20;;;;;;4994482;28;20026;-71
2022/05/15 04:57:20;;;;;;;17.35;4.65;;;13.90;84.80;;;;;;4994814;28;20386;-70
2022/05/15 04:59:46;;;;;;;14.70;4.28;;;13.90;85.10;;;;;;4994798;28;20162;-71
2022/05/15 05:02:12;;;;;;;14.38;4.78;;;13.90;85.30;;;;;;4993846;28;20548;-71
2022/05/15 05:04:37;;;;;;;22.13;5.05;;;13.90;85.60;;;;;;4994620;28;20409;-71
2022/05/15 05:07:03;;;;;;;13.27;4.55;;;13.90;85.90;;;;;;4994847;28;20077;-71
2022/05/15 05:09:29;;;;;;;21.98;4.47;;;13.90;86.30;;;;;;4993955;28;20031;-71
2022/05/15 05:11:55;;;;;;;25.33;4.65;;;13.90;86.70;;;;;;4994392;28;20073;-71
2022/05/15 05:14:21;;;;;;;13.73;5.80;;;13.90;87.30;;;;;;4981964;28;20030;-71
2022/05/15 05:16:47;;;;;;;17.60;4.70;;;13.90;87.60;;;;;;4993617;28;20397;-71
2022/05/15 05:19:12;;;;;;;12.98;4.68;;;13.90;87.90;;;;;;4993582;28;20386;-71
2022/05/15 05:21:41;;;;;;;18.63;4.38;;;13.90;88.40;;;;;;4994372;28;20517;-71
2022/05/15 05:24:07;;;;;;;18.75;4.40;;;13.90;88.90;;;;;;4993727;28;20034;-71
2022/05/15 05:26:32;;;;;;;24.02;5.00;;;13.90;89.30;;;;;;4994102;28;20038;-71
2022/05/15 05:28:58;;;;;;;25.58;5.40;;;14.00;89.80;;;;;;4994468;28;20559;-71
2022/05/15 05:31:24;;;;;;;31.27;4.80;;;14.00;90.10;;;;;;4992214;28;20026;-72
2022/05/15 05:33:50;;;;;;;24.83;4.70;;;14.00;90.10;;;;;;4993081;28;20030;-72
2022/05/15 05:36:15;;;;;;;27.60;5.35;;;14.10;90.00;;;;;;4993241;28;20022;-70
2022/05/15 05:38:41;;;;;;;17.23;5.00;;;14.10;90.20;;;;;;4992431;28;20435;-69
2022/05/15 05:41:07;;;;;;;26.90;5.00;;;14.10;90.30;;;;;;4993187;28;20053;-71
2022/05/15 05:43:33;;;;;;;31.42;5.80;;;14.20;90.50;;;;;;4992649;28;20057;-71
2022/05/15 05:45:59;;;;;;;26.83;5.38;;;14.20;90.60;;;;;;4992160;28;20391;-71
2022/05/15 05:48:26;;;;;;;18.67;4.47;;;14.30;90.70;;;;;;4992736;28;20105;-71
2022/05/15 05:50:51;;;;;;;19.45;4.57;;;14.30;90.80;;;;;;4992765;28;20031;-71
2022/05/15 05:53:17;;;;;;;19.23;4.53;;;14.40;90.90;;;;;;4992242;28;20018;-71
2022/05/15 05:55:43;;;;;;;26.73;4.00;;;14.50;91.00;;;;;;4992777;28;20683;-71
2022/05/15 05:58:09;;;;;;;22.98;4.95;;;14.50;90.70;;;;;;4991867;28;20037;-71
2022/05/15 06:00:40;;;;;;;22.25;5.35;;;14.50;90.80;;;;;;4992330;28;20030;-70
2022/05/15 06:05:51;;;;;;;25.23;5.38;;;14.60;91.10;;;;;;4991026;28;20183;-71
2022/05/15 06:08:17;;;;;;;20.55;4.93;;;14.70;91.10;;;;;;4992191;28;20069;-71
2022/05/15 06:10:44;;;;;;;17.45;4.32;;;14.70;91.20;;;;;;4991930;28;20099;-71
2022/05/15 06:13:10;;;;;;;28.08;4.85;;;14.80;91.10;;;;;;4990332;28;20030;-71
2022/05/15 06:15:36;;;;;;;27.48;4.75;;;14.80;91.30;;;;;;4989643;28;20490;-70
2022/05/15 06:18:04;;;;;;;18.38;4.47;;;14.90;91.50;;;;;;4992505;28;20026;-71
2022/05/15 06:20:30;;;;;;;17.15;4.50;;;14.90;91.40;;;;;;4991799;28;20041;-71
2022/05/15 06:22:56;;;;;;;23.13;5.50;;;15.00;91.40;;;;;;4989846;28;20023;-71
2022/05/15 06:25:22;;;;;;;18.65;4.57;;;15.00;91.50;;;;;;4991715;28;20050;-70
2022/05/15 06:27:48;;;;;;;20.17;5.28;;;15.00;91.60;;;;;;4991212;28;20386;-71
2022/05/15 06:30:14;;;;;;;21.60;4.40;;;15.00;91.50;;;;;;4991642;28;20490;-71
2022/05/15 06:32:40;;;;;;;21.70;4.85;;;15.00;91.40;;;;;;4991862;28;20026;-71
2022/05/15 06:35:07;;;;;;;22.40;4.45;;;15.00;91.50;;;;;;4991448;28;20041;-71
2022/05/15 06:37:35;;;;;;;24.73;5.43;;;15.00;91.50;;;;;;4992809;28;20035;-71
2022/05/15 06:40:02;;;;;;;24.33;5.38;;;15.10;91.70;;;;;;4992939;28;20035;-71
2022/05/15 06:42:29;;;;;;;26.20;4.78;;;15.00;91.60;;;;;;4992123;28;20104;-71
2022/05/15 06:44:56;;;;;;;23.63;4.63;;;15.10;91.60;;;;;;4978524;28;20061;-71
2022/05/15 06:47:23;;;;;;;23.80;4.30;;;15.10;91.40;;;;;;4992363;28;20465;-71
2022/05/15 06:49:49;;;;;;;21.88;4.20;;;15.20;91.50;;;;;;4992559;28;20117;-71
2022/05/15 06:52:15;;;;;;;24.52;5.28;;;15.20;91.50;;;;;;4992647;28;20113;-71
2022/05/15 06:54:40;;;;;;;22.30;4.80;;;15.30;91.50;;;;;;4991946;28;20034;-71
2022/05/15 06:59:50;;;;;;;21.60;4.93;;;15.40;91.50;;;;;;4992662;28;20142;-71
2022/05/15 07:02:16;;;;;;;24.10;4.40;;;15.50;91.30;;;;;;4992051;28;20482;-71
2022/05/15 07:04:42;;;;;;;19.02;4.18;;;15.50;91.30;;;;;;4992249;28;20078;-71
2022/05/15 07:07:08;;;;;;;19.42;4.07;;;15.50;91.30;;;;;;4992235;28;20058;-71
2022/05/15 07:09:34;;;;;;;27.98;4.78;;;15.60;91.40;;;;;;4991480;28;20410;-70
2022/05/15 07:12:03;;;;;;;14.88;4.47;;;15.60;91.30;;;;;;4992375;28;20062;-71
2022/05/15 07:14:29;;;;;;;21.58;3.85;;;15.70;91.30;;;;;;4992472;28;20076;-71
2022/05/15 07:16:56;;;;;;;13.63;3.88;;;15.80;91.40;;;;;;4990951;28;20457;-71
2022/05/15 07:19:21;;;;;;;19.75;4.43;;;15.80;91.40;;;;;;4992393;28;20026;-71
2022/05/15 07:21:53;;;;;;;17.83;3.75;;;15.90;91.20;;;;;;4991867;28;20026;-71
2022/05/15 07:24:20;;;;;;;27.02;5.10;;;15.90;91.10;;;;;;4989508;28;20524;-71
2022/05/15 07:26:46;;;;;;;26.33;4.32;;;15.90;91.10;;;;;;4990709;28;20042;-73
2022/05/15 07:29:13;;;;;;;20.48;4.78;;;16.00;91.10;;;;;;4990448;28;20034;-73
2022/05/15 07:31:39;;;;;;;26.13;4.57;;;16.10;91.00;;;;;;4989782;28;20041;-73
2022/05/15 07:34:05;;;;;;;17.00;3.83;;;16.20;90.90;;;;;;4990562;28;20034;-73
2022/05/15 07:36:31;;;;;;;25.17;4.55;;;16.20;90.50;;;;;;4991244;28;20029;-71
2022/05/15 07:38:57;;;;;;;22.27;4.70;;;16.30;90.30;;;;;;4986503;28;20103;-73
2022/05/15 07:41:23;;;;;;;18.58;4.15;;;16.30;90.10;;;;;;4990185;28;20033;-72
2022/05/15 07:43:51;;;;;;;24.27;4.97;;;16.40;89.90;;;;;;4990005;28;20027;-70
2022/05/15 07:46:17;;;;;;;20.30;4.78;;;16.40;89.50;;;;;;4990828;28;20029;-72
2022/05/15 07:48:44;;;;;;;7.72;2.60;;;16.40;89.70;;;;;;4990716;28;20034;-72
2022/05/15 07:51:13;;;;;;;14.50;3.03;;;16.50;89.80;;;;;;4990092;28;20107;-73
2022/05/15 07:53:40;;;;;;;11.07;2.70;;;16.50;89.90;;;;;;4990559;28;20049;-74
2022/05/15 07:56:09;;;;;;;10.07;2.95;;;16.60;89.90;;;;;;4990375;28;20545;-73
2022/05/15 07:58:39;;;;;;;26.15;4.10;;;16.60;89.90;;;;;;4990013;28;20030;-69
2022/05/15 08:01:08;;;;;;;15.17;3.70;;;16.60;90.20;;;;;;4988169;28;20572;-72
2022/05/15 08:03:43;;;;;;;17.98;3.70;;;16.70;89.80;;;;;;4990357;28;20027;-70
2022/05/15 08:08:59;;;;;;;14.88;3.80;;;16.70;90.00;;;;;;4990546;28;20544;-70
2022/05/15 08:11:28;;;;;;;10.73;2.70;;;16.80;89.80;;;;;;4988023;28;20117;-70
2022/05/15 08:13:55;;;;;;;11.85;2.65;;;16.80;88.80;;;;;;4992602;28;20109;-72
2022/05/15 08:16:21;;;;;;;17.92;2.83;;;16.90;89.20;;;;;;4993278;28;20066;-74
2022/05/15 08:24:16;;;;;;;14.50;3.47;;;16.90;89.50;;;;;;4994180;28;20038;-73
2022/05/15 08:26:44;;;;;;;19.27;2.88;;;16.90;88.90;;;;;;4993721;28;20026;-73
2022/05/15 08:29:10;;;;;;;11.50;2.63;;;16.90;89.20;;;;;;4990896;28;20474;-73
2022/05/15 08:31:36;;;;;;;13.05;3.22;;;17.00;89.30;;;;;;4993106;28;20034;-74
2022/05/15 08:34:02;;;;;;;13.80;2.20;;;17.00;89.50;;;;;;4992799;28;20026;-73
2022/05/15 08:36:28;;;;;;;17.17;2.75;;;17.10;89.60;;;;;;4993946;28;20057;-73
2022/05/15 08:38:53;;;;;;;9.02;2.42;;;17.10;89.70;;;;;;4993362;28;20121;-73
2022/05/15 08:41:31;;;;;;;8.65;2.42;;;17.20;89.80;;;;;;4990718;28;20055;-73
2022/05/15 08:43:59;;;;;;;17.08;3.20;;;17.30;90.00;;;;;;4991416;28;20037;-73
2022/05/15 08:46:40;;;;;;;10.70;3.25;;;17.30;89.60;;;;;;4993804;28;20049;-73
2022/05/15 08:49:29;;;;;;;10.13;2.15;;;17.30;89.50;;;;;;4993501;28;20407;-73
2022/05/15 08:52:25;;;;;;;12.93;2.88;;;17.40;89.80;;;;;;4994178;28;20037;-73
2022/05/15 08:55:14;;;;;;;5.63;2.15;;;17.50;89.60;;;;;;4990018;28;20029;-72
2022/05/15 08:57:44;;;;;;;12.43;2.35;;;17.50;89.30;;;;;;4992032;28;20508;-72
2022/05/15 09:00:14;;;;;;;10.50;2.03;;;17.50;89.10;;;;;;4992723;28;20034;-72
2022/05/15 09:02:42;;;;;;;11.27;2.53;;;17.60;89.20;;;;;;4991888;28;20066;-71
2022/05/15 09:05:10;;;;;;;11.57;2.20;;;17.60;88.80;;;;;;4993243;28;20129;-71
2022/05/15 09:07:52;;;;;;;11.32;2.83;;;17.70;88.70;;;;;;4993362;28;20456;-76
2022/05/15 09:10:42;;;;;;;5.78;1.73;;;17.70;88.30;;;;;;4993477;28;20070;-73
2022/05/15 09:13:11;;;;;;;11.13;1.95;;;17.70;88.70;;;;;;4983822;28;20030;-70
2022/05/15 09:16:00;;;;;;;13.38;2.67;;;17.70;88.30;;;;;;4993648;28;20077;-70
2022/05/15 09:18:27;;;;;;;11.05;2.40;;;17.80;88.10;;;;;;4993926;28;20030;-70
2022/05/15 09:20:53;;;;;;;6.53;1.65;;;17.80;88.00;;;;;;4994302;28;20034;-70
2022/05/15 09:23:34;;;;;;;5.75;1.65;;;17.90;88.00;;;;;;4993146;28;20040;-70
2022/05/15 09:26:06;;;;;;;6.47;2.58;;;18.00;87.60;;;;;;4993995;28;20065;-70
2022/05/15 09:28:43;;;;;;;9.50;2.10;;;18.00;87.10;;;;;;4993769;28;20026;-70
2022/05/15 09:31:29;;;;;;;8.73;1.88;;;18.10;87.30;;;;;;4992527;28;20061;-70
2022/05/15 09:34:26;;;;;;;13.80;2.08;;;18.10;87.30;;;;;;4992520;28;20069;-71
2022/05/15 09:39:45;;;;;;;14.88;2.22;;;18.30;86.30;;;;;;4991842;28;20034;-72
2022/05/15 09:45:07;;;;;;;13.25;2.03;;;18.40;86.70;;;;;;4992930;28;20047;-72
2022/05/15 09:47:56;;;;;;;5.22;2.00;;;18.50;86.70;;;;;;4993735;28;20100;-71
2022/05/15 09:50:40;;;;;;;2.90;1.50;;;18.60;86.00;;;;;;4984409;28;20504;-72
2022/05/15 09:53:08;;;;;;;9.57;2.25;;;18.60;86.90;;;;;;4992208;28;20076;-73
2022/05/15 09:55:35;;;;;;;7.97;2.22;;;18.60;86.50;;;;;;4991870;28;20045;-71
2022/05/15 09:58:03;;;;;;;14.15;2.20;;;18.60;86.10;;;;;;4989660;28;20035;-73
2022/05/15 10:00:36;;;;;;;11.85;2.22;;;18.60;86.00;;;;;;4992517;28;20381;-73
2022/05/15 10:03:23;;;;;;;5.35;1.65;;;18.60;85.00;;;;;;4993250;28;20481;-73
2022/05/15 10:06:04;;;;;;;9.57;2.53;;;18.70;85.50;;;;;;4992227;28;20553;-73
2022/05/15 10:08:32;;;;;;;3.80;1.33;;;18.70;85.20;;;;;;4992831;28;20390;-73
2022/05/15 10:11:11;;;;;;;7.60;1.67;;;18.70;85.70;;;;;;4993285;28;20030;-73
2022/05/15 10:13:52;;;;;;;9.45;1.73;;;18.70;86.10;;;;;;4980385;28;20093;-73
2022/05/15 10:16:20;;;;;;;8.35;2.15;;;18.70;85.80;;;;;;4986598;28;20549;-73
2022/05/15 10:19:20;;;;;;;6.53;2.10;;;18.80;85.50;;;;;;4992396;28;20035;-75
2022/05/15 10:21:50;;;;;;;6.45;2.70;;;18.80;84.50;;;;;;4992930;28;20045;-75
2022/05/15 10:24:27;;;;;;;9.20;1.70;;;18.90;84.70;;;;;;4992859;28;20053;-73
2022/05/15 10:27:22;;;;;;;9.15;2.13;;;18.90;84.60;;;;;;4980650;28;20038;-71
2022/05/15 10:30:18;;;;;;;11.10;2.00;;;19.00;83.90;;;;;;4985644;28;20046;-72
2022/05/15 10:32:54;;;;;;;8.82;2.20;;;19.10;84.00;;;;;;4991385;28;20038;-73
2022/05/15 10:35:32;;;;;;;9.68;1.77;;;19.10;83.20;;;;;;4992055;28;20034;-71
2022/05/15 10:38:12;;;;;;;6.75;2.08;;;19.20;83.00;;;;;;4993346;28;20524;-75
2022/05/15 10:40:54;;;;;;;6.03;1.75;;;19.20;82.80;;;;;;4992330;28;20037;-75
2022/05/15 10:43:44;;;;;;;3.28;1.25;;;19.30;82.10;;;;;;4987234;28;20121;-78
2022/05/15 10:46:35;;;;;;;6.88;2.00;;;19.40;82.80;;;;;;4989447;28;20042;-77
2022/05/15 10:49:28;;;;;;;10.32;1.92;;;19.40;82.50;;;;;;4991721;28;20073;-77
2022/05/15 10:52:02;;;;;;;6.97;2.22;;;19.50;83.00;;;;;;4991910;28;20026;-74
2022/05/15 10:57:30;;;;;;;7.70;1.90;;;19.50;84.10;;;;;;4986780;28;20042;-75
2022/05/15 11:00:11;;;;;;;7.75;1.92;;;19.60;83.40;;;;;;4986392;28;20404;-74
2022/05/15 11:03:15;;;;;;;9.15;2.13;;;19.50;83.40;;;;;;4987556;28;20027;-73
2022/05/15 11:06:07;;;;;;;9.07;2.47;;;19.60;82.50;;;;;;4955407;28;20371;-75
2022/05/15 11:09:00;;;;;;;6.93;2.03;;;19.60;81.80;;;;;;4991122;28;20066;-77
2022/05/15 11:11:31;;;;;;;13.20;1.90;;;19.70;82.40;;;;;;4988058;28;20034;-71
2022/05/15 11:14:15;;;;;;;7.85;1.88;;;19.80;82.90;;;;;;4986631;28;20078;-71
2022/05/15 11:17:00;;;;;;;3.70;1.83;;;19.70;81.80;;;;;;4985504;28;20070;-70
2022/05/15 11:19:39;;;;;;;7.32;1.75;;;19.80;81.80;;;;;;4988040;28;20502;-71
2022/05/15 11:22:30;;;;;;;6.22;1.77;;;19.80;82.30;;;;;;4986595;28;20041;-71
2022/05/15 11:25:05;;;;;;;12.15;2.45;;;19.80;81.80;;;;;;4987581;28;20034;-69
2022/05/15 11:27:51;;;;;;;7.97;2.08;;;19.90;81.60;;;;;;4988846;28;20033;-70
2022/05/15 11:30:19;;;;;;;14.60;2.63;;;20.00;82.00;;;;;;4986749;28;20518;-71
2022/05/15 11:32:45;;;;;;;5.03;2.00;;;20.00;82.20;;;;;;4980513;28;20996;-69
2022/05/15 11:35:11;;;;;;;5.25;2.05;;;20.00;81.20;;;;;;4986575;28;20024;-71
2022/05/15 11:37:36;;;;;;;8.85;3.10;;;20.00;81.40;;;;;;4986855;28;20129;-71
2022/05/15 11:40:03;;;;;;;9.70;2.30;;;20.10;80.80;;;;;;4987566;28;20029;-71
2022/05/15 11:42:30;;;;;;;7.40;2.05;;;20.00;80.80;;;;;;4987255;28;20077;-71
2022/05/15 11:45:29;;;;;;;10.38;2.10;;;20.10;80.70;;;;;;4986246;28;20057;-71
2022/05/15 11:48:17;;;;;;;12.05;1.65;;;20.20;81.50;;;;;;4987650;28;20030;-71
2022/05/15 11:50:53;;;;;;;7.95;1.80;;;20.10;81.20;;;;;;4984997;28;20026;-71
2022/05/15 11:53:49;;;;;;;6.53;2.53;;;20.10;81.60;;;;;;4987843;28;20029;-71
2022/05/15 11:56:24;;;;;;;9.38;2.20;;;20.10;80.60;;;;;;4987056;28;20069;-69
2022/05/15 11:59:02;;;;;;;7.35;1.73;;;20.20;80.90;;;;;;4988676;28;20083;-69
2022/05/15 12:01:35;;;;;;;8.00;1.60;;;20.20;80.50;;;;;;4986950;28;20260;-70
2022/05/15 12:04:18;;;;;;;9.90;2.30;;;20.30;80.70;;;;;;4989675;28;20441;-70
2022/05/15 12:06:56;;;;;;;6.78;1.58;;;20.40;80.10;;;;;;4991332;28;20046;-70
2022/05/15 12:09:39;;;;;;;6.72;2.00;;;20.30;80.50;;;;;;4989016;28;20050;-70
2022/05/15 12:12:21;;;;;;;16.02;2.50;;;20.30;80.60;;;;;;4990049;28;20033;-70
2022/05/15 12:15:08;;;;;;;9.50;1.95;;;20.40;80.20;;;;;;4989924;28;20494;-71
2022/05/15 12:17:44;;;;;;;8.00;2.28;;;20.40;80.70;;;;;;4990274;28;20113;-70
2022/05/15 12:20:30;;;;;;;12.52;3.47;;;20.50;80.00;;;;;;4989696;28;20038;-70
2022/05/15 12:23:01;;;;;;;10.45;2.20;;;20.50;79.30;;;;;;4989985;28;20104;-70
2022/05/15 12:25:31;;;;;;;6.57;2.15;;;20.50;80.10;;;;;;4982559;28;20046;-71
2022/05/15 12:31:27;;;;;;;8.80;2.08;;;20.60;80.40;;;;;;4986631;28;20034;-71
2022/05/15 12:33:53;;;;;;;14.45;2.22;;;20.60;81.00;;;;;;4976299;28;20073;-71
2022/05/15 12:36:34;;;;;;;9.50;2.30;;;20.50;81.20;;;;;;4988215;28;20030;-71
2022/05/15 12:39:05;;;;;;;14.73;2.45;;;20.60;81.50;;;;;;4983472;28;20047;-70
2022/05/15 12:41:37;;;;;;;5.68;2.50;;;20.50;82.00;;;;;;4987861;28;20042;-72
2022/05/15 12:44:08;;;;;;;10.25;2.25;;;20.60;81.70;;;;;;4989055;28;20045;-72
2022/05/15 12:46:40;;;;;;;8.90;2.45;;;20.50;82.90;;;;;;4986080;28;20152;-72
2022/05/15 12:49:09;;;;;;;16.38;2.58;;;20.60;83.30;;;;;;4983174;28;20591;-70
2022/05/15 12:51:40;;;;;;;8.05;3.08;;;20.60;83.70;;;;;;4985831;28;20477;-70
2022/05/15 12:54:27;;;;;;;10.82;3.13;;;20.50;83.70;;;;;;4984754;28;20038;-78
2022/05/15 12:57:04;;;;;;;3.40;1.65;;;20.50;83.90;;;;;;4985842;28;20080;-71
2022/05/15 12:59:33;;;;;;;13.02;3.03;;;20.40;84.40;;;;;;4989412;28;20096;-71
2022/05/15 13:02:20;;;;;;;6.25;2.00;;;20.40;84.70;;;;;;4989544;28;20053;-71
2022/05/15 13:04:50;;;;;;;9.07;2.88;;;20.30;84.90;;;;;;4991315;28;20042;-68
2022/05/15 13:07:15;;;;;;;4.80;1.40;;;20.40;85.00;;;;;;4989666;28;21372;-68
2022/05/15 13:10:16;;;;;;;11.07;2.40;;;20.30;85.40;;;;;;4991073;28;20034;-69
2022/05/15 13:12:56;;;;;;;8.50;2.17;;;20.30;85.50;;;;;;4988721;28;20050;-69
2022/05/15 13:15:25;;;;;;;15.57;3.03;;;20.30;85.60;;;;;;4987895;28;20577;-70
2022/05/15 13:17:53;;;;;;;13.90;3.40;;;20.30;85.70;;;;;;4988858;28;20085;-68
2022/05/15 13:20:21;;;;;;;9.10;2.05;;;20.30;85.70;;;;;;4989087;28;20046;-70
2022/05/15 13:22:48;;;;;;;6.85;1.98;;;20.30;85.90;;;;;;4991787;28;20457;-72
2022/05/15 13:25:26;;;;;;;16.30;3.45;;;20.30;86.10;;;;;;4994042;28;20042;-72
2022/05/15 13:27:53;;;;;;;12.05;2.80;;;20.40;86.00;;;;;;4994989;28;20073;-72